createdAt,value
2023-02-08T00:02:25.361Z,16.08
2023-02-08T00:05:17.380Z,15.93
2023-02-08T00:08:07.760Z,15.50
2023-02-08T00:10:57.948Z,13.65
2023-02-08T00:13:48.641Z,13.60
2023-02-08T00:16:38.641Z,12.57
2023-02-08T00:19:28.477Z,11.77
2023-02-08T00:22:18.321Z,11.80
2023-02-08T00:25:08.873Z,12.70
2023-02-08T00:27:59.277Z,12.57
2023-02-08T00:30:49.668Z,11.75
2023-02-08T00:33:39.491Z,11.50
2023-02-08T00:36:29.620Z,13.82
2023-02-08T00:39:21.177Z,13.20
2023-02-08T00:42:11.434Z,11.70
2023-02-08T00:45:03.840Z,13.43
2023-02-08T00:47:54.220Z,15.30
2023-02-08T00:50:44.902Z,14.77
2023-02-08T00:53:40.463Z,15.00
2023-02-08T00:56:30.759Z,13.88
2023-02-08T00:59:22.815Z,14.77
2023-02-08T01:02:13.195Z,14.43
2023-02-08T01:05:03.556Z,14.95
2023-02-08T01:07:53.579Z,14.93
2023-02-08T01:10:44.750Z,14.68
2023-02-08T01:13:34.951Z,15.93
2023-02-08T01:16:27.620Z,15.57
2023-02-08T01:19:17.711Z,15.13
2023-02-08T01:22:07.713Z,15.57
2023-02-08T01:24:57.569Z,16.05
2023-02-08T01:27:47.767Z,15.68
2023-02-08T01:30:38.023Z,16.98
2023-02-08T01:33:28.492Z,15.55
2023-02-08T01:36:19.288Z,15.55
2023-02-08T01:39:11.221Z,14.32
2023-02-08T01:42:01.535Z,15.77
2023-02-08T01:45:21.096Z,15.25
2023-02-08T01:48:17.377Z,14.10
2023-02-08T01:51:20.153Z,14.15
2023-02-08T01:54:12.284Z,13.63
2023-02-08T01:57:02.715Z,13.35
2023-02-08T02:00:01.745Z,12.35
2023-02-08T02:02:55.156Z,12.63
2023-02-08T02:05:51.853Z,12.43
2023-02-08T02:08:49.139Z,13.10
2023-02-08T02:11:39.157Z,13.63
2023-02-08T02:14:29.549Z,12.48
2023-02-08T02:17:20.631Z,13.68
2023-02-08T02:20:29.367Z,13.82
2023-02-08T02:23:34.572Z,13.60
2023-02-08T02:26:53.062Z,13.75
2023-02-08T02:30:15.073Z,13.30
2023-02-08T02:33:23.617Z,12.30
2023-02-08T02:36:22.412Z,12.73
2023-02-08T02:39:43.125Z,12.35
2023-02-08T02:43:19.713Z,11.95
2023-02-08T02:46:37.234Z,12.10
2023-02-08T02:49:37.964Z,12.05
2023-02-08T02:52:45.051Z,12.95
2023-02-08T02:55:41.673Z,12.35
2023-02-08T02:58:33.218Z,12.80
2023-02-08T03:01:26.179Z,13.85
2023-02-08T03:04:39.459Z,14.48
2023-02-08T03:07:52.971Z,14.63
2023-02-08T03:10:52.062Z,15.07
2023-02-08T03:14:06.875Z,14.95
2023-02-08T03:17:03.606Z,16.05
2023-02-08T03:20:04.773Z,14.73
2023-02-08T03:23:19.445Z,15.32
2023-02-08T03:29:16.224Z,13.35
2023-02-08T03:32:14.691Z,15.07
2023-02-08T03:35:24.078Z,14.60
2023-02-08T03:38:29.594Z,15.43
2023-02-08T03:41:25.033Z,15.30
2023-02-08T03:44:22.356Z,14.63
2023-02-08T03:47:20.255Z,14.68
2023-02-08T03:50:12.900Z,13.70
2023-02-08T03:53:04.169Z,15.13
2023-02-08T03:56:01.937Z,14.88
2023-02-08T03:58:58.802Z,14.27
2023-02-08T04:01:56.096Z,14.30
2023-02-08T04:04:50.002Z,14.52
2023-02-08T04:07:40.290Z,15.38
2023-02-08T04:10:30.604Z,14.80
2023-02-08T04:13:20.871Z,15.00
2023-02-08T04:16:12.852Z,14.75
2023-02-08T04:19:02.868Z,14.50
2023-02-08T04:21:52.629Z,14.98
2023-02-08T04:24:42.454Z,14.20
2023-02-08T04:27:32.428Z,15.15
2023-02-08T04:30:24.165Z,14.75
2023-02-08T04:33:14.950Z,14.75
2023-02-08T04:36:05.430Z,14.75
2023-02-08T04:38:55.931Z,14.88
2023-02-08T04:41:45.954Z,15.52
2023-02-08T04:44:35.883Z,14.57
2023-02-08T04:47:25.977Z,14.95
2023-02-08T04:50:16.100Z,15.43
2023-02-08T04:53:06.693Z,14.95
2023-02-08T04:55:56.836Z,15.38
2023-02-08T04:58:48.444Z,14.57
2023-02-08T05:01:38.470Z,15.52
2023-02-08T05:04:28.488Z,15.88
2023-02-08T05:07:18.576Z,15.75
2023-02-08T05:10:08.940Z,15.25
2023-02-08T05:12:58.980Z,15.23
2023-02-08T05:15:48.952Z,15.25
2023-02-08T05:18:39.322Z,15.60
2023-02-08T05:21:29.334Z,15.73
2023-02-08T05:24:19.359Z,14.82
2023-02-08T05:27:09.217Z,14.75
2023-02-08T05:29:59.496Z,14.55
2023-02-08T05:32:49.490Z,15.57
2023-02-08T05:35:39.640Z,16.50
2023-02-08T05:38:29.935Z,14.88
2023-02-08T05:41:20.367Z,14.30
2023-02-08T05:44:10.380Z,14.35
2023-02-08T05:47:00.630Z,15.48
2023-02-08T05:49:50.883Z,14.60
2023-02-08T05:52:40.776Z,15.77
2023-02-08T05:55:31.006Z,15.13
2023-02-08T05:58:21.375Z,15.10
2023-02-08T06:01:13.304Z,13.48
2023-02-08T06:04:03.552Z,14.95
2023-02-08T06:06:53.992Z,15.18
2023-02-08T06:09:43.900Z,13.77
2023-02-08T06:12:33.739Z,14.60
2023-02-08T06:15:23.641Z,14.90
2023-02-08T06:18:14.339Z,15.25
2023-02-08T06:21:05.543Z,14.50
2023-02-08T06:23:55.801Z,14.23
2023-02-08T06:26:47.301Z,14.82
2023-02-08T06:29:37.527Z,14.85
2023-02-08T06:32:27.555Z,14.52
2023-02-08T06:35:17.682Z,13.70
2023-02-08T06:38:07.990Z,14.05
2023-02-08T06:40:58.384Z,14.45
2023-02-08T06:43:48.575Z,14.65
2023-02-08T06:46:38.447Z,13.35
2023-02-08T06:49:28.229Z,15.07
2023-02-08T06:52:19.407Z,13.20
2023-02-08T06:55:09.466Z,13.02
2023-02-08T06:57:59.355Z,14.38
2023-02-08T07:00:49.141Z,14.00
2023-02-08T07:03:39.699Z,15.75
2023-02-08T07:06:30.028Z,14.80
2023-02-08T07:09:20.128Z,14.10
2023-02-08T07:12:10.759Z,14.73
2023-02-08T07:15:00.788Z,14.63
2023-02-08T07:17:50.719Z,15.02
2023-02-08T07:20:41.013Z,14.80
2023-02-08T07:23:31.718Z,14.48
2023-02-08T07:26:22.114Z,15.07
2023-02-08T07:29:12.040Z,15.57
2023-02-08T07:32:04.369Z,14.18
2023-02-08T07:34:54.709Z,16.27
2023-02-08T07:37:44.697Z,15.75
2023-02-08T07:40:34.608Z,16.08
2023-02-08T07:43:26.944Z,15.45
2023-02-08T07:46:22.431Z,15.88
2023-02-08T07:49:12.773Z,16.05
2023-02-08T07:52:04.015Z,17.05
2023-02-08T07:54:53.843Z,16.52
2023-02-08T07:57:44.754Z,16.70
2023-02-08T08:00:34.803Z,18.25
2023-02-08T08:03:24.841Z,17.65
2023-02-08T08:06:15.102Z,18.88
2023-02-08T08:09:05.780Z,18.48
2023-02-08T08:11:55.893Z,18.30
2023-02-08T08:14:46.338Z,18.60
2023-02-08T08:17:36.670Z,17.77
2023-02-08T08:20:27.186Z,18.38
2023-02-08T08:23:17.291Z,18.92
2023-02-08T08:26:13.910Z,18.58
2023-02-08T08:29:04.252Z,18.27
2023-02-08T08:31:55.862Z,17.25
2023-02-08T08:34:46.210Z,16.65
2023-02-08T08:37:36.815Z,17.83
2023-02-08T08:40:26.862Z,17.15
2023-02-08T08:43:16.702Z,15.20
2023-02-08T08:46:07.910Z,15.60
2023-02-08T08:48:58.009Z,16.45
2023-02-08T08:51:47.990Z,15.90
2023-02-08T08:54:38.895Z,15.20
2023-02-08T08:57:29.170Z,14.88
2023-02-08T09:00:19.338Z,15.93
2023-02-08T09:03:09.240Z,15.55
2023-02-08T09:05:59.538Z,14.55
2023-02-08T09:08:51.710Z,14.50
2023-02-08T09:11:41.779Z,15.30
2023-02-08T09:14:31.843Z,15.50
2023-02-08T09:17:21.755Z,15.27
2023-02-08T09:20:11.828Z,14.55
2023-02-08T09:23:01.800Z,14.00
2023-02-08T09:25:52.067Z,14.23
2023-02-08T09:28:42.453Z,14.43
2023-02-08T09:31:37.727Z,15.13
2023-02-08T09:34:28.208Z,14.68
2023-02-08T09:37:18.436Z,13.35
2023-02-08T09:40:21.264Z,12.80
2023-02-08T09:43:24.446Z,14.18
2023-02-08T09:46:24.175Z,14.68
2023-02-08T09:49:22.364Z,12.98
2023-02-08T09:52:21.037Z,13.70
2023-02-08T09:55:21.497Z,12.77
2023-02-08T09:58:35.127Z,13.63
2023-02-08T10:01:28.653Z,13.60
2023-02-08T10:04:31.730Z,13.55
2023-02-08T10:07:22.059Z,13.60
2023-02-08T10:10:19.096Z,13.52
2023-02-08T10:13:41.164Z,12.40
2023-02-08T10:16:58.404Z,12.93
2023-02-08T10:20:17.349Z,11.88
2023-02-08T10:23:22.308Z,11.20
2023-02-08T10:26:19.375Z,12.32
2023-02-08T10:29:24.848Z,11.32
2023-02-08T10:32:39.676Z,11.10
2023-02-08T10:35:41.481Z,11.63
2023-02-08T10:38:45.500Z,12.43
2023-02-08T10:41:36.972Z,11.20
2023-02-08T10:44:28.148Z,10.57
2023-02-08T10:47:27.392Z,11.88
2023-02-08T10:50:35.585Z,10.95
2023-02-08T10:53:25.514Z,11.25
2023-02-08T10:56:46.668Z,13.25
2023-02-08T10:59:49.607Z,10.65
2023-02-08T11:02:42.548Z,11.20
2023-02-08T11:05:37.135Z,10.27
2023-02-08T11:08:29.420Z,10.60
2023-02-08T11:11:19.929Z,10.98
2023-02-08T11:14:17.173Z,10.65
2023-02-08T11:17:28.196Z,10.20
2023-02-08T11:20:29.263Z,10.00
2023-02-08T11:23:26.765Z,10.13
2023-02-08T11:26:25.094Z,9.85
2023-02-08T11:29:18.358Z,9.68
2023-02-08T11:32:19.986Z,9.95
2023-02-08T11:35:22.750Z,8.82
2023-02-08T11:38:19.480Z,9.48
2023-02-08T11:41:19.090Z,9.20
2023-02-08T11:44:19.971Z,9.38
2023-02-08T11:47:16.315Z,10.05
2023-02-08T11:50:08.201Z,8.77
2023-02-08T11:53:04.921Z,9.85
2023-02-08T11:56:09.699Z,9.48
2023-02-08T11:59:12.368Z,8.35
2023-02-08T12:02:29.321Z,8.65
2023-02-08T12:05:28.843Z,6.50
2023-02-08T12:08:42.285Z,7.57
2023-02-08T12:11:45.872Z,6.97
2023-02-08T12:14:59.334Z,7.50
2023-02-08T12:18:22.709Z,7.43
2023-02-08T12:21:26.994Z,8.40
2023-02-08T12:24:28.220Z,7.60
2023-02-08T12:27:27.457Z,7.38
2023-02-08T12:30:37.006Z,7.22
2023-02-08T12:33:37.615Z,7.95
2023-02-08T12:37:15.012Z,6.85
2023-02-08T12:40:38.563Z,7.45
2023-02-08T12:44:07.707Z,5.72
2023-02-08T12:47:16.124Z,5.05
2023-02-08T12:50:24.405Z,5.10
2023-02-08T12:53:31.080Z,5.78
2023-02-08T12:56:26.434Z,5.40
2023-02-08T12:59:26.554Z,5.30
2023-02-08T13:02:31.674Z,5.90
2023-02-08T13:05:23.346Z,5.65
2023-02-08T13:08:36.081Z,5.85
2023-02-08T13:11:53.595Z,6.38
2023-02-08T13:14:50.828Z,5.78
2023-02-08T13:17:55.304Z,5.53
2023-02-08T13:20:50.541Z,5.85
2023-02-08T13:23:51.954Z,6.25
2023-02-08T13:26:42.905Z,4.82
2023-02-08T13:29:34.209Z,5.72
2023-02-08T13:32:38.567Z,4.97
2023-02-08T13:35:30.439Z,5.18
2023-02-08T13:38:35.546Z,5.03
2023-02-08T13:41:27.421Z,5.03
2023-02-08T13:44:24.453Z,5.20
2023-02-08T13:47:30.186Z,5.63
2023-02-08T13:50:42.167Z,5.28
2023-02-08T13:53:55.830Z,5.55
2023-02-08T13:56:48.714Z,4.63
2023-02-08T13:59:41.817Z,5.47
2023-02-08T14:02:32.396Z,5.33
2023-02-08T14:05:50.352Z,4.93
2023-02-08T14:08:46.935Z,5.18
2023-02-08T14:12:05.694Z,5.60
2023-02-08T14:15:15.598Z,5.35
2023-02-08T14:18:22.674Z,5.05
2023-02-08T14:21:28.234Z,5.82
2023-02-08T14:24:26.406Z,6.20
2023-02-08T14:27:22.600Z,6.20
2023-02-08T14:30:16.132Z,5.70
2023-02-08T14:33:07.411Z,5.60
2023-02-08T14:36:01.724Z,5.70
2023-02-08T14:39:07.634Z,6.53
2023-02-08T14:42:01.149Z,5.75
2023-02-08T14:44:57.874Z,6.00
2023-02-08T14:47:47.697Z,6.32
2023-02-08T14:50:41.379Z,6.47
2023-02-08T14:56:57.253Z,6.38
2023-02-08T14:59:48.148Z,6.82
2023-02-08T15:02:41.834Z,6.45
2023-02-08T15:05:40.504Z,6.47
2023-02-08T15:08:30.850Z,6.55
2023-02-08T15:11:27.831Z,7.07
2023-02-08T15:14:21.274Z,7.07
2023-02-08T15:17:25.143Z,7.45
2023-02-08T15:20:30.591Z,7.43
2023-02-08T15:23:24.698Z,7.25
2023-02-08T15:29:44.584Z,7.55
2023-02-08T15:32:35.461Z,7.18
2023-02-08T15:35:26.340Z,7.75
2023-02-08T15:38:20.529Z,7.45
2023-02-08T15:41:13.540Z,8.52
2023-02-08T15:44:24.914Z,7.60
2023-02-08T15:47:32.613Z,8.15
2023-02-08T15:50:23.975Z,8.48
2023-02-08T15:53:15.870Z,8.35
2023-02-08T15:56:07.501Z,7.78
2023-02-08T15:59:00.401Z,8.20
2023-02-08T16:01:51.732Z,8.43
2023-02-08T16:04:46.068Z,8.40
2023-02-08T16:07:48.196Z,8.27
2023-02-08T16:10:46.241Z,8.10
2023-02-08T16:13:38.851Z,9.15
2023-02-08T16:16:35.291Z,8.38
2023-02-08T16:19:30.341Z,7.75
2023-02-08T16:22:32.704Z,8.45
2023-02-08T16:25:24.683Z,8.82
2023-02-08T16:28:28.081Z,8.35
2023-02-08T16:31:23.070Z,8.23
2023-02-08T16:34:18.448Z,8.60
2023-02-08T16:37:23.141Z,9.05
2023-02-08T16:40:44.965Z,8.90
2023-02-08T16:43:37.649Z,8.70
2023-02-08T16:46:28.706Z,8.68
2023-02-08T16:49:19.570Z,9.48
2023-02-08T16:52:10.904Z,8.90
2023-02-08T16:55:01.412Z,9.50
2023-02-08T16:57:54.227Z,9.60
2023-02-08T17:00:45.424Z,8.55
2023-02-08T17:03:38.296Z,8.93
2023-02-08T17:06:30.896Z,9.10
2023-02-08T17:09:20.814Z,11.68
2023-02-08T17:12:21.785Z,10.73
2023-02-08T17:15:12.571Z,9.00
2023-02-08T17:18:02.944Z,9.85
2023-02-08T17:20:59.299Z,10.35
2023-02-08T17:23:50.110Z,9.73
2023-02-08T17:26:43.771Z,10.43
2023-02-08T17:29:33.663Z,10.77
2023-02-08T17:32:23.513Z,10.77
2023-02-08T17:35:17.207Z,10.75
2023-02-08T17:38:07.206Z,10.48
2023-02-08T17:40:57.082Z,10.73
2023-02-08T17:43:52.176Z,11.02
2023-02-08T17:46:42.477Z,10.73
2023-02-08T17:49:32.530Z,9.80
2023-02-08T17:52:23.009Z,11.48
2023-02-08T17:55:14.936Z,12.38
2023-02-08T17:58:05.458Z,10.85
2023-02-08T18:00:56.087Z,11.32
2023-02-08T18:03:47.662Z,11.73
2023-02-08T18:06:37.826Z,11.80
2023-02-08T18:09:28.366Z,11.13
2023-02-08T18:12:18.383Z,11.02
2023-02-08T18:15:12.011Z,11.70
2023-02-08T18:18:02.316Z,11.93
2023-02-08T18:20:52.098Z,11.48
2023-02-08T18:23:42.966Z,12.35
2023-02-08T18:26:34.432Z,10.77
2023-02-08T18:29:25.709Z,12.70
2023-02-08T18:32:16.044Z,11.60
2023-02-08T18:35:07.874Z,11.52
2023-02-08T18:37:58.131Z,11.52
2023-02-08T18:40:48.615Z,11.45
2023-02-08T18:43:40.719Z,11.82
2023-02-08T18:46:31.093Z,11.70
2023-02-08T18:49:21.183Z,12.13
2023-02-08T18:52:13.454Z,11.35
2023-02-08T18:55:04.207Z,12.43
2023-02-08T18:57:54.342Z,11.13
2023-02-08T19:00:44.315Z,12.25
2023-02-08T19:03:35.826Z,11.73
2023-02-08T19:06:28.578Z,12.07
2023-02-08T19:09:18.955Z,11.80
2023-02-08T19:12:09.142Z,11.90
2023-02-08T19:14:59.529Z,12.13
2023-02-08T19:17:49.484Z,12.50
2023-02-08T19:20:39.472Z,11.55
2023-02-08T19:23:30.008Z,11.45
2023-02-08T19:26:39.970Z,11.43
2023-02-08T19:29:30.304Z,11.57
2023-02-08T19:32:20.532Z,11.82
2023-02-08T19:35:11.502Z,11.07
2023-02-08T19:38:01.794Z,11.45
2023-02-08T19:40:55.181Z,12.02
2023-02-08T19:43:46.757Z,11.02
2023-02-08T19:46:40.154Z,11.48
2023-02-08T19:49:30.146Z,12.00
2023-02-08T19:52:20.904Z,11.82
2023-02-08T19:55:11.046Z,11.20
2023-02-08T19:58:00.821Z,10.48
2023-02-08T20:00:51.600Z,11.98
2023-02-08T20:03:41.955Z,11.85
2023-02-08T20:06:35.471Z,12.38
2023-02-08T20:09:25.504Z,8.32
2023-02-08T20:12:15.961Z,11.65
2023-02-08T20:15:06.433Z,12.07
2023-02-08T20:17:57.881Z,11.32
2023-02-08T20:21:00.068Z,12.80
2023-02-08T20:23:50.802Z,12.75
2023-02-08T20:26:42.785Z,11.75
2023-02-08T20:29:33.247Z,12.10
2023-02-08T20:32:23.336Z,12.40
2023-02-08T20:35:17.073Z,12.20
2023-02-08T20:38:07.064Z,13.40
2023-02-08T20:41:05.101Z,13.50
2023-02-08T20:43:56.057Z,13.20
2023-02-08T20:46:46.656Z,16.50
2023-02-08T20:49:38.887Z,16.65
2023-02-08T20:52:29.158Z,15.65
2023-02-08T20:55:19.299Z,12.43
2023-02-08T20:58:09.626Z,11.23
2023-02-08T21:00:59.784Z,12.95
2023-02-08T21:03:52.207Z,13.18
2023-02-08T21:06:44.578Z,12.52
2023-02-08T21:09:35.122Z,14.80
2023-02-08T21:12:25.865Z,13.63
2023-02-08T21:15:15.781Z,12.18
2023-02-08T21:18:06.181Z,13.50
2023-02-08T21:20:56.399Z,15.23
2023-02-08T21:23:47.017Z,15.27
2023-02-08T21:26:37.516Z,15.60
2023-02-08T21:29:29.272Z,14.77
2023-02-08T21:32:19.739Z,14.45
2023-02-08T21:35:10.110Z,14.77
2023-02-08T21:38:00.095Z,14.50
2023-02-08T21:40:50.302Z,15.75
2023-02-08T21:43:40.822Z,14.90
2023-02-08T21:46:32.294Z,16.27
2023-02-08T21:49:41.083Z,15.82
2023-02-08T21:52:50.154Z,16.95
2023-02-08T21:55:45.676Z,17.48
2023-02-08T21:58:36.082Z,20.15
2023-02-08T22:01:25.900Z,23.08
2023-02-08T22:04:16.138Z,24.42
2023-02-08T22:07:06.119Z,19.13
2023-02-08T22:09:57.796Z,18.00
2023-02-08T22:12:48.572Z,16.85
2023-02-08T22:15:38.872Z,18.30
2023-02-08T22:18:29.111Z,17.45
2023-02-08T22:21:19.090Z,17.48
2023-02-08T22:24:08.999Z,17.52
2023-02-08T22:26:58.934Z,16.50
2023-02-08T22:29:49.107Z,17.75
2023-02-08T22:32:43.341Z,15.50
2023-02-08T22:35:33.494Z,15.75
2023-02-08T22:38:24.369Z,17.08
2023-02-08T22:41:15.743Z,18.30
2023-02-08T22:44:06.154Z,18.27
2023-02-08T22:46:57.464Z,18.30
2023-02-08T22:49:48.010Z,19.30
2023-02-08T22:52:38.329Z,17.02
2023-02-08T22:55:28.829Z,18.85
2023-02-08T22:58:19.054Z,16.13
2023-02-08T23:01:17.093Z,16.48
2023-02-08T23:04:07.234Z,14.90
2023-02-08T23:06:58.790Z,16.20
2023-02-08T23:09:48.944Z,14.95
2023-02-08T23:12:39.542Z,14.02
2023-02-08T23:15:30.224Z,13.57
2023-02-08T23:18:21.502Z,13.43
2023-02-08T23:21:16.437Z,14.80
2023-02-08T23:24:06.868Z,12.65
2023-02-08T23:26:56.980Z,14.10
2023-02-08T23:29:47.268Z,14.75
2023-02-08T23:32:37.718Z,14.13
2023-02-08T23:35:27.652Z,13.50
2023-02-08T23:38:17.657Z,13.80
2023-02-08T23:41:14.092Z,14.57
2023-02-08T23:44:04.119Z,13.15
2023-02-08T23:46:54.407Z,12.60
2023-02-08T23:49:44.543Z,13.07
2023-02-08T23:52:35.715Z,13.43
2023-02-08T23:55:25.893Z,14.20
2023-02-08T23:58:16.087Z,14.43
